Dewey, IL (61840)

5:13 AM CDT on August 26, 2016 (GMT -0500)
Dewey, IL | | Change Station

Elev 715 ft 40.28 °N, 88.31 °W | Updated 31 seconds ago

Overcast
Overcast
69.3 °F
Feels Like 69.3 °F
N
0.0
Wind Variable Wind from East
Gusts 0.0 mph

Today
High -- | Low -- °F
--% Chance of Precip.
Yesterday
High -- | Low -- °F
Precip. -- in
Pressure 30.12 in
Visibility 10.0 miles
Clouds Scattered Clouds 11000 ft
Dew Point 63 °F
Humidity 79%
Rainfall 0.30 in
Snow Depth Not available.
6:15 AM 7:33 PM
Waning Crescent, 36% visible
METAR KTIP 260955Z AUTO 07004KT 10SM -VCTSRA SCT110 21/20 A3012 RMK AO2 LTG DSNT E THRU S P0032 T02100203
Pressure 30.12 in
Visibility 10.0 miles
Clouds Scattered Clouds 11000 ft
Dew Point 63 °F
Humidity 79%
Rainfall 0.30 in
Snow Depth Not available.
6:15 AM 7:33 PM
Waning Crescent, 36% visible
METAR KTIP 260955Z AUTO 07004KT 10SM -VCTSRA SCT110 21/20 A3012 RMK AO2 LTG DSNT E THRU S P0032 T02100203

10-Day Weather Forecast

Almanac

Astronomy

Aug. 26, 2016 Rise Set
Actual Time
Civil Twilight
Nautical Twilight
Astronomical Twilight
Moon
Length of Visible Light
Length of Day
Tomorrow will be .
, % of the Moon is Illuminated

Today's Extremes

State Highs State Lows

Community

WunderPhotos

Upload Photos

1,935,069 photos uploaded!

WunderBlog® & News

Nearby

Air Quality

  Air Quality AQ Index Pollutant
Not available.

Snow Depth

Station Depth Elevation

Earthquake Activity

City Distance Mag. Time & Date
Minimum magnitude displayed is 2.5.

Coastal Water Temperatures

Place Temperature

Stations

Nearby Weather Stations

Station Location Temp. Windchill Dew Point Humidity Wind Precip. Elev Updated Type
                   

Watches & Warnings

There are currently no watches in effect.